aviador You're here:

RKTU Decoded Metar

CHONGJU in KOREA
Report Time2018-05-27 00:00:00
UTC Time2018-05-27 01:02:52
Flight Rules mvfr MVFR
Wind160° at 01 kt
W.Decomp.*RWY 24: 0.3 kt HW 1 kt LCW
W.Rank160° ranks 35
Current wind is below 160° avg. (2.3)
Visibility6000 m
Phenomena:N/A
Clouds:N/A
Expected CloudBase > 1,600 ft AGL from Temp-Dew spread
CeilingNone
Temp20°C (ISA +5)
Dew Point16°C (78% RH)
QNH1011 hPa
Density Alt1,161 ft
Elevation217 ft
Report Wrong Elevation
Raw Report
METAR RKTU 270000Z 16001KT 6000 NSC 20/16 Q1011 NOSIG=####018001935####
SAUS11 KAWN 270000 RRL

Extra information for RKTU:More info

Metar Taf Metar & Taf Last 4 Metars F.Rules Stats Wind Profile Meteogram Temp Stats Airport Information Weather charts Add Link Nearby VenuesMetar ALERT Operation Metar Decoded Social comments